Time;durP1;ratioP1;P1;durP2;ratioP2;P2;SDS_P1;SDS_P2;PMS_P1;PMS_P2;Temp;Humidity;BMP_temperature;BMP_pressure;BME280_temperature;BME280_humidity;BME280_pressure;Samples;Min_cycle;Max_cycle;Signal;HPM_P1;HPM_P2
2023/02/28 00:00:13;;;;;;;5.73;2.37;;;;;;;;;;5047173;28;20037;-78
2023/02/28 00:02:40;;;;;;;5.27;2.40;;;;;;;;;;5058870;28;20028;-78
2023/02/28 00:05:06;;;;;;;5.33;2.20;;;;;;;;;;5056612;28;22086;-77
2023/02/28 00:07:35;;;;;;;5.80;2.30;;;;;;;;;;5059110;28;20286;-77
2023/02/28 00:10:01;;;;;;;5.37;2.20;;;;;;;;;;5059174;28;20344;-78
2023/02/28 00:12:30;;;;;;;3.93;2.03;;;;;;;;;;5057529;28;20335;-77
2023/02/28 00:14:56;;;;;;;6.50;3.10;;;;;;;;;;5039913;28;20286;-77
2023/02/28 00:17:22;;;;;;;4.23;2.20;;;;;;;;;;5040767;28;20285;-76
2023/02/28 00:19:48;;;;;;;5.93;2.33;;;;;;;;;;5039916;28;20036;-78
2023/02/28 00:22:15;;;;;;;2.67;1.90;;;;;;;;;;5058189;28;20279;-76
2023/02/28 00:24:41;;;;;;;6.43;2.00;;;;;;;;;;5039979;28;20279;-78
2023/02/28 00:27:08;;;;;;;6.40;2.33;;;;;;;;;;5039837;28;20746;-76
2023/02/28 00:29:34;;;;;;;6.73;2.50;;;;;;;;;;5042123;28;20116;-76
2023/02/28 00:31:59;;;;;;;6.33;2.60;;;;;;;;;;5049207;28;20378;-76
2023/02/28 00:34:25;;;;;;;4.03;2.20;;;;;;;;;;5058621;28;20062;-74
2023/02/28 00:36:54;;;;;;;6.97;2.77;;;;;;;;;;5043211;28;20306;-74
2023/02/28 00:39:20;;;;;;;5.53;2.60;;;;;;;;;;5059141;28;20070;-74
2023/02/28 00:41:46;;;;;;;5.50;2.70;;;;;;;;;;5060074;28;20371;-76
2023/02/28 00:44:12;;;;;;;3.90;2.40;;;;;;;;;;5043576;28;20318;-75
2023/02/28 00:46:40;;;;;;;4.40;2.43;;;;;;;;;;5061918;28;20274;-74
2023/02/28 00:49:06;;;;;;;6.73;2.77;;;;;;;;;;5059348;28;20282;-75
2023/02/28 00:51:34;;;;;;;12.23;2.73;;;;;;;;;;5042780;28;20774;-74
2023/02/28 00:54:00;;;;;;;5.40;2.43;;;;;;;;;;5047316;28;20318;-76
2023/02/28 00:56:26;;;;;;;4.37;2.73;;;;;;;;;;5041819;28;20275;-74
2023/02/28 00:58:52;;;;;;;8.23;2.37;;;;;;;;;;5043466;28;20279;-74
2023/02/28 01:01:21;;;;;;;7.90;2.10;;;;;;;;;;5044536;28;20294;-75
2023/02/28 01:03:49;;;;;;;4.07;2.53;;;;;;;;;;5044733;28;20424;-78
2023/02/28 01:06:15;;;;;;;4.17;2.40;;;;;;;;;;5042140;28;20290;-78
2023/02/28 01:08:41;;;;;;;7.67;2.73;;;;;;;;;;5042878;28;20287;-76
2023/02/28 01:11:08;;;;;;;10.27;2.53;;;;;;;;;;5050339;28;20039;-78
2023/02/28 01:13:34;;;;;;;5.43;2.60;;;;;;;;;;5044072;28;20298;-76
2023/02/28 01:16:00;;;;;;;5.17;2.30;;;;;;;;;;5060092;28;20275;-75
2023/02/28 01:18:28;;;;;;;5.57;2.40;;;;;;;;;;5043974;28;20029;-76
2023/02/28 01:20:55;;;;;;;5.07;2.63;;;;;;;;;;5059834;28;20024;-75
2023/02/28 01:23:23;;;;;;;7.90;2.40;;;;;;;;;;5060006;28;20291;-75
2023/02/28 01:25:49;;;;;;;6.53;2.60;;;;;;;;;;5047526;28;20283;-75
2023/02/28 01:28:17;;;;;;;5.20;2.60;;;;;;;;;;5041587;28;20287;-76
2023/02/28 01:30:47;;;;;;;4.17;2.50;;;;;;;;;;5057620;28;20318;-76
2023/02/28 01:33:14;;;;;;;7.37;2.40;;;;;;;;;;5061566;28;20376;-77
2023/02/28 01:35:40;;;;;;;4.73;2.30;;;;;;;;;;5057226;28;20283;-77
2023/02/28 01:38:06;;;;;;;8.57;2.67;;;;;;;;;;5040894;28;20278;-78
2023/02/28 01:40:33;;;;;;;5.63;2.60;;;;;;;;;;5059759;28;20303;-78
2023/02/28 01:42:59;;;;;;;4.53;2.47;;;;;;;;;;5042265;28;20343;-77
2023/02/28 01:45:30;;;;;;;4.60;2.37;;;;;;;;;;5057876;28;20036;-76
2023/02/28 01:48:00;;;;;;;4.13;2.37;;;;;;;;;;5058841;28;20063;-75
2023/02/28 01:50:28;;;;;;;6.73;2.27;;;;;;;;;;5047561;28;20287;-76
2023/02/28 01:53:01;;;;;;;4.80;2.47;;;;;;;;;;5061275;28;22076;-77
2023/02/28 01:55:28;;;;;;;2.90;2.07;;;;;;;;;;5042140;28;20291;-75
2023/02/28 01:57:58;;;;;;;5.27;2.53;;;;;;;;;;5047510;28;20275;-78
2023/02/28 02:00:29;;;;;;;4.60;2.30;;;;;;;;;;5059109;28;21916;-79
2023/02/28 02:02:57;;;;;;;6.97;2.20;;;;;;;;;;5041390;28;21945;-78
2023/02/28 02:05:28;;;;;;;3.87;2.73;;;;;;;;;;5046357;28;20739;-75
2023/02/28 02:08:24;;;;;;;5.03;2.40;;;;;;;;;;5044645;28;20278;-76
2023/02/28 02:10:53;;;;;;;7.90;2.03;;;;;;;;;;5032031;28;20291;-76
2023/02/28 02:13:38;;;;;;;5.20;2.30;;;;;;;;;;5053128;28;20774;-76
2023/02/28 02:16:28;;;;;;;4.97;2.33;;;;;;;;;;5041384;28;20275;-77
2023/02/28 02:19:18;;;;;;;3.37;2.33;;;;;;;;;;5044619;28;20263;-75
2023/02/28 02:21:44;;;;;;;5.90;2.43;;;;;;;;;;5059536;28;20297;-76
2023/02/28 02:24:27;;;;;;;5.23;2.40;;;;;;;;;;5057528;28;20764;-76
2023/02/28 02:27:15;;;;;;;4.27;2.43;;;;;;;;;;5044907;28;20037;-77
2023/02/28 02:29:56;;;;;;;5.27;2.53;;;;;;;;;;5056149;28;20302;-76
2023/02/28 02:32:28;;;;;;;3.60;2.40;;;;;;;;;;5057601;28;21030;-76
2023/02/28 02:35:00;;;;;;;6.57;2.72;;;;;;;;;;5062533;28;20283;-75
2023/02/28 02:37:28;;;;;;;7.13;2.85;;;;;;;;;;5049621;28;20040;-76
2023/02/28 02:40:15;;;;;;;4.10;2.33;;;;;;;;;;5040720;28;20051;-75
2023/02/28 02:42:42;;;;;;;5.93;2.23;;;;;;;;;;5054808;28;20350;-77
2023/02/28 02:45:14;;;;;;;4.70;2.27;;;;;;;;;;5071665;28;20275;-76
2023/02/28 02:47:41;;;;;;;4.40;2.10;;;;;;;;;;5060001;28;20307;-77
2023/02/28 02:50:09;;;;;;;6.07;2.40;;;;;;;;;;5045570;28;20032;-77
2023/02/28 02:52:39;;;;;;;5.10;2.30;;;;;;;;;;5051967;28;20378;-76
2023/02/28 02:55:06;;;;;;;8.30;2.60;;;;;;;;;;5054452;28;20279;-76
2023/02/28 02:57:35;;;;;;;2.90;2.50;;;;;;;;;;5052487;28;20275;-76
2023/02/28 03:00:04;;;;;;;2.60;2.17;;;;;;;;;;5057227;28;20286;-76
2023/02/28 03:02:34;;;;;;;3.73;2.40;;;;;;;;;;5056816;28;20310;-76
2023/02/28 03:05:02;;;;;;;5.50;1.93;;;;;;;;;;5041554;28;20267;-76
2023/02/28 03:07:28;;;;;;;4.50;1.80;;;;;;;;;;5067699;28;20279;-76
2023/02/28 03:09:55;;;;;;;4.70;2.57;;;;;;;;;;5053068;28;20709;-76
2023/02/28 03:12:22;;;;;;;6.73;2.27;;;;;;;;;;5070217;28;20035;-76
2023/02/28 03:14:54;;;;;;;3.33;2.07;;;;;;;;;;5057478;28;20291;-76
2023/02/28 03:17:32;;;;;;;3.38;2.42;;;;;;;;;;5072494;28;20614;-77
2023/02/28 03:19:58;;;;;;;3.47;2.30;;;;;;;;;;5056847;28;20024;-77
2023/02/28 03:22:24;;;;;;;6.07;2.50;;;;;;;;;;5056512;28;21079;-76
2023/02/28 03:24:55;;;;;;;3.27;2.30;;;;;;;;;;5053601;28;20503;-76
2023/02/28 03:27:28;;;;;;;3.57;2.40;;;;;;;;;;5043649;28;20558;-76
2023/02/28 03:29:54;;;;;;;;;;;;;;;;;;5063157;28;20297;-76
2023/02/28 03:32:52;;;;;;;3.57;2.00;;;;;;;;;;5046696;28;19916;-76
2023/02/28 03:35:21;;;;;;;3.80;1.97;;;;;;;;;;5012411;28;20040;-76
2023/02/28 03:37:48;;;;;;;2.47;1.90;;;;;;;;;;5046071;28;20289;-77
2023/02/28 03:40:25;;;;;;;3.07;2.17;;;;;;;;;;5074015;28;20341;-76
2023/02/28 03:42:54;;;;;;;6.87;2.57;;;;;;;;;;5050622;28;20348;-77
2023/02/28 03:45:23;;;;;;;4.37;2.40;;;;;;;;;;5072720;28;20261;-77
2023/02/28 03:47:59;;;;;;;3.80;2.50;;;;;;;;;;5056246;28;20738;-77
2023/02/28 03:50:27;;;;;;;5.83;2.87;;;;;;;;;;5073614;28;20304;-74
2023/02/28 03:53:04;;;;;;;6.83;2.57;;;;;;;;;;5055112;28;20283;-76
2023/02/28 03:55:33;;;;;;;3.17;2.17;;;;;;;;;;5069905;28;20301;-76
2023/02/28 03:58:04;;;;;;;3.57;2.30;;;;;;;;;;5071782;28;20723;-76
2023/02/28 04:00:34;;;;;;;7.57;4.07;;;;;;;;;;5053732;28;20651;-77
2023/02/28 04:03:00;;;;;;;5.57;2.60;;;;;;;;;;5044163;28;20325;-77
2023/02/28 04:05:27;;;;;;;4.47;2.70;;;;;;;;;;5051616;28;20282;-76
2023/02/28 04:07:55;;;;;;;4.33;2.67;;;;;;;;;;5048935;28;20922;-77
2023/02/28 04:10:21;;;;;;;7.13;3.13;;;;;;;;;;5054082;28;20281;-76
2023/02/28 04:12:47;;;;;;;4.67;3.43;;;;;;;;;;5076952;28;20286;-75
2023/02/28 04:15:13;;;;;;;5.20;3.40;;;;;;;;;;5056334;28;21423;-76
2023/02/28 04:17:42;;;;;;;5.67;2.80;;;;;;;;;;5055690;28;20068;-76
2023/02/28 04:20:09;;;;;;;4.93;3.03;;;;;;;;;;5046008;28;20612;-76
2023/02/28 04:22:36;;;;;;;5.57;3.00;;;;;;;;;;5043942;28;20286;-74
2023/02/28 04:25:01;;;;;;;5.20;3.10;;;;;;;;;;5046203;28;20282;-76
2023/02/28 04:27:27;;;;;;;6.87;3.37;;;;;;;;;;5045288;28;20285;-76
2023/02/28 04:29:53;;;;;;;5.90;2.97;;;;;;;;;;5059771;28;20028;-76
2023/02/28 04:32:19;;;;;;;7.53;2.87;;;;;;;;;;5044007;28;21691;-77
2023/02/28 04:34:45;;;;;;;7.53;3.53;;;;;;;;;;5059194;28;20055;-76
2023/02/28 04:37:14;;;;;;;3.87;2.87;;;;;;;;;;5058838;28;20032;-76
2023/02/28 04:39:40;;;;;;;7.27;3.47;;;;;;;;;;5043429;28;20029;-76
2023/02/28 04:42:06;;;;;;;6.13;3.57;;;;;;;;;;5060465;28;20774;-76
2023/02/28 04:44:32;;;;;;;6.10;3.10;;;;;;;;;;5040139;28;20279;-75
2023/02/28 04:46:58;;;;;;;6.30;3.43;;;;;;;;;;5059638;28;20271;-76
2023/02/28 04:49:24;;;;;;;6.73;3.73;;;;;;;;;;5059229;28;20290;-75
2023/02/28 04:51:52;;;;;;;6.77;3.23;;;;;;;;;;5041973;28;20301;-76
2023/02/28 04:54:18;;;;;;;6.73;3.20;;;;;;;;;;5044276;28;20287;-75
2023/02/28 04:56:45;;;;;;;6.10;3.53;;;;;;;;;;5061697;28;20727;-76
2023/02/28 04:59:11;;;;;;;6.77;3.20;;;;;;;;;;5058964;28;20378;-76
2023/02/28 05:01:39;;;;;;;4.60;2.50;;;;;;;;;;5062592;28;20357;-76
2023/02/28 05:04:05;;;;;;;5.23;2.63;;;;;;;;;;5045507;28;20275;-76
2023/02/28 05:06:32;;;;;;;14.40;3.50;;;;;;;;;;5041317;28;20279;-75
2023/02/28 05:08:58;;;;;;;6.40;2.80;;;;;;;;;;5061357;28;20763;-76
2023/02/28 05:11:33;;;;;;;6.30;2.50;;;;;;;;;;5045990;28;20582;-76
2023/02/28 05:13:59;;;;;;;6.67;3.00;;;;;;;;;;5051813;28;20319;-75
2023/02/28 05:16:25;;;;;;;9.13;3.13;;;;;;;;;;5048065;28;20274;-76
2023/02/28 05:18:53;;;;;;;9.70;3.70;;;;;;;;;;5044177;28;20366;-76
2023/02/28 05:21:25;;;;;;;6.77;3.00;;;;;;;;;;5060036;28;20029;-76
2023/02/28 05:23:51;;;;;;;4.93;2.92;;;;;;;;;;5045044;28;20275;-74
2023/02/28 05:26:17;;;;;;;3.90;2.70;;;;;;;;;;5044062;28;20029;-75
2023/02/28 05:28:43;;;;;;;6.27;2.70;;;;;;;;;;5040702;28;20290;-74
2023/02/28 05:31:13;;;;;;;4.47;2.77;;;;;;;;;;5045642;28;20127;-77
2023/02/28 05:33:39;;;;;;;7.80;3.20;;;;;;;;;;5039836;28;20083;-75
2023/02/28 05:36:08;;;;;;;6.83;2.90;;;;;;;;;;5063662;28;20637;-76
2023/02/28 05:38:34;;;;;;;4.40;3.00;;;;;;;;;;5043000;28;20275;-76
2023/02/28 05:41:05;;;;;;;6.00;3.17;;;;;;;;;;5046588;28;20279;-74
2023/02/28 05:43:31;;;;;;;2.90;2.57;;;;;;;;;;5044123;28;20734;-76
2023/02/28 05:45:59;;;;;;;8.03;2.97;;;;;;;;;;5040727;28;20267;-76
2023/02/28 05:48:25;;;;;;;7.47;3.17;;;;;;;;;;5042163;28;20021;-77
2023/02/28 05:50:51;;;;;;;5.70;2.97;;;;;;;;;;5042552;28;20412;-75
2023/02/28 05:53:17;;;;;;;5.63;2.60;;;;;;;;;;5043516;28;20761;-75
2023/02/28 05:55:43;;;;;;;4.63;2.83;;;;;;;;;;5058687;28;20040;-75
2023/02/28 05:58:09;;;;;;;6.60;3.00;;;;;;;;;;5057973;28;20062;-75
2023/02/28 06:00:37;;;;;;;4.67;2.93;;;;;;;;;;5040861;28;21705;-77
2023/02/28 06:03:04;;;;;;;7.90;2.87;;;;;;;;;;5041263;28;20021;-75
2023/02/28 06:05:30;;;;;;;8.40;2.90;;;;;;;;;;5059581;28;20276;-76
2023/02/28 06:07:56;;;;;;;8.10;3.27;;;;;;;;;;5041318;28;20736;-76
2023/02/28 06:10:22;;;;;;;5.23;2.77;;;;;;;;;;5043102;28;20039;-76
2023/02/28 06:12:47;;;;;;;4.70;2.93;;;;;;;;;;5042062;28;20138;-75
2023/02/28 06:15:17;;;;;;;6.60;3.10;;;;;;;;;;5056953;28;20400;-76
2023/02/28 06:17:44;;;;;;;5.87;2.70;;;;;;;;;;5058120;28;20052;-75
2023/02/28 06:20:12;;;;;;;10.10;3.30;;;;;;;;;;5046177;28;20299;-76
2023/02/28 06:22:38;;;;;;;5.43;2.20;;;;;;;;;;5045950;28;20279;-75
2023/02/28 06:25:05;;;;;;;6.17;2.83;;;;;;;;;;5057272;28;20781;-77
2023/02/28 06:27:31;;;;;;;4.47;3.10;;;;;;;;;;5057431;28;20332;-75
2023/02/28 06:30:00;;;;;;;5.00;2.57;;;;;;;;;;5058642;28;21004;-76
2023/02/28 06:32:26;;;;;;;3.70;2.60;;;;;;;;;;5047859;28;20282;-76
2023/02/28 06:34:52;;;;;;;8.53;3.20;;;;;;;;;;5044470;28;20337;-77
2023/02/28 06:37:19;;;;;;;3.83;2.40;;;;;;;;;;5058703;28;20969;-76
2023/02/28 06:39:45;;;;;;;3.70;2.70;;;;;;;;;;5049707;28;20278;-75
2023/02/28 06:42:11;;;;;;;5.70;2.60;;;;;;;;;;5042983;28;20337;-76
2023/02/28 06:44:37;;;;;;;4.13;2.67;;;;;;;;;;5056477;28;20367;-77
2023/02/28 06:47:04;;;;;;;4.63;3.00;;;;;;;;;;5048473;28;20024;-76
2023/02/28 06:49:33;;;;;;;5.80;2.77;;;;;;;;;;5045239;28;21633;-77
2023/02/28 06:51:59;;;;;;;5.17;2.47;;;;;;;;;;5049341;28;21935;-76
2023/02/28 06:54:25;;;;;;;4.43;2.70;;;;;;;;;;5061202;28;20318;-77
2023/02/28 06:56:54;;;;;;;5.17;2.27;;;;;;;;;;5056932;28;20282;-77
2023/02/28 06:59:20;;;;;;;4.60;2.30;;;;;;;;;;5057842;28;20283;-77
2023/02/28 07:01:46;;;;;;;4.67;2.70;;;;;;;;;;5058183;28;20316;-75
2023/02/28 07:04:12;;;;;;;3.50;2.10;;;;;;;;;;5056506;28;20736;-75
2023/02/28 07:06:39;;;;;;;4.63;2.30;;;;;;;;;;5046278;28;20039;-76
2023/02/28 07:09:05;;;;;;;5.07;2.27;;;;;;;;;;5055718;28;20352;-75
2023/02/28 07:11:31;;;;;;;5.17;2.03;;;;;;;;;;5040002;28;22008;-77
2023/02/28 07:13:57;;;;;;;8.00;2.27;;;;;;;;;;5040417;28;20294;-76
2023/02/28 07:16:27;;;;;;;11.80;6.27;;;;;;;;;;5057208;28;20581;-75
2023/02/28 07:18:53;;;;;;;349.33;133.70;;;;;;;;;;5043374;28;20283;-76
2023/02/28 07:21:19;;;;;;;295.93;113.30;;;;;;;;;;5056351;28;20305;-77
2023/02/28 07:23:47;;;;;;;217.33;91.13;;;;;;;;;;5056625;28;20647;-76
2023/02/28 07:26:15;;;;;;;39.87;20.50;;;;;;;;;;5040703;28;20286;-76
2023/02/28 07:28:42;;;;;;;29.83;16.27;;;;;;;;;;5055890;28;20290;-77
2023/02/28 07:31:09;;;;;;;20.93;14.53;;;;;;;;;;5060168;28;20282;-77
2023/02/28 07:33:35;;;;;;;8.87;3.73;;;;;;;;;;5043152;28;20329;-77
2023/02/28 07:36:05;;;;;;;4.20;2.47;;;;;;;;;;5053329;28;20604;-75
2023/02/28 07:38:33;;;;;;;5.50;2.70;;;;;;;;;;5055454;28;20279;-75
2023/02/28 07:41:04;;;;;;;4.23;2.20;;;;;;;;;;5057167;28;20267;-76
2023/02/28 07:43:30;;;;;;;101.83;47.20;;;;;;;;;;5038244;28;20279;-76
2023/02/28 07:45:56;;;;;;;92.37;45.63;;;;;;;;;;5056063;28;20276;-75
2023/02/28 07:48:22;;;;;;;22.03;12.97;;;;;;;;;;5057656;28;20283;-76
2023/02/28 07:50:55;;;;;;;15.67;11.00;;;;;;;;;;5056316;28;20271;-75
2023/02/28 07:53:24;;;;;;;3.70;2.03;;;;;;;;;;5054804;28;20109;-76
2023/02/28 07:55:49;;;;;;;4.73;2.73;;;;;;;;;;5036163;28;20290;-76
2023/02/28 07:58:15;;;;;;;4.37;2.07;;;;;;;;;;5037851;28;20286;-75
2023/02/28 08:00:44;;;;;;;3.90;2.93;;;;;;;;;;5042212;28;20024;-76
2023/02/28 08:03:13;;;;;;;2.83;1.80;;;;;;;;;;5041142;28;20033;-76
2023/02/28 08:05:40;;;;;;;5.73;2.00;;;;;;;;;;5054787;28;20284;-76
2023/02/28 08:08:06;;;;;;;2.00;1.70;;;;;;;;;;5059710;28;20296;-76
2023/02/28 08:10:32;;;;;;;4.60;2.83;;;;;;;;;;5037154;28;20723;-75
2023/02/28 08:12:58;;;;;;;6.00;3.40;;;;;;;;;;5040402;28;20935;-75
2023/02/28 08:15:24;;;;;;;4.87;3.53;;;;;;;;;;5039305;28;20436;-77
2023/02/28 08:17:50;;;;;;;6.43;4.17;;;;;;;;;;5053963;28;20028;-75
2023/02/28 08:20:16;;;;;;;38.30;21.77;;;;;;;;;;5044622;28;20044;-76
2023/02/28 08:22:42;;;;;;;10.37;6.57;;;;;;;;;;5037613;28;20449;-75
2023/02/28 08:25:09;;;;;;;12.43;9.73;;;;;;;;;;5054468;28;20040;-76
2023/02/28 08:27:37;;;;;;;12.33;8.83;;;;;;;;;;5037878;28;20291;-78
2023/02/28 08:30:04;;;;;;;3.90;3.13;;;;;;;;;;5056664;28;20271;-77
2023/02/28 08:32:30;;;;;;;3.97;1.87;;;;;;;;;;5054641;28;20335;-77
2023/02/28 08:34:56;;;;;;;4.87;1.30;;;;;;;;;;5056370;28;20941;-76
2023/02/28 08:37:22;;;;;;;4.60;2.10;;;;;;;;;;5056386;28;20028;-76
2023/02/28 08:39:48;;;;;;;2.30;1.80;;;;;;;;;;5037630;28;20123;-75
2023/02/28 08:42:15;;;;;;;3.30;1.80;;;;;;;;;;5058519;28;20373;-77
2023/02/28 08:44:41;;;;;;;2.07;1.70;;;;;;;;;;5041288;28;20513;-77
2023/02/28 08:47:07;;;;;;;6.73;2.03;;;;;;;;;;5049327;28;20350;-75
2023/02/28 08:49:33;;;;;;;4.97;2.40;;;;;;;;;;5056242;28;20369;-76
2023/02/28 08:51:59;;;;;;;4.53;1.90;;;;;;;;;;5045656;28;20029;-77
2023/02/28 08:54:25;;;;;;;4.37;2.57;;;;;;;;;;5044225;28;20447;-78
2023/02/28 08:56:51;;;;;;;4.07;2.07;;;;;;;;;;5076228;28;20035;-77
2023/02/28 08:59:19;;;;;;;3.33;1.93;;;;;;;;;;5058145;28;20711;-76
2023/02/28 09:01:45;;;;;;;6.87;3.10;;;;;;;;;;5078342;28;20024;-76
2023/02/28 09:04:11;;;;;;;2.60;1.60;;;;;;;;;;5058552;28;20294;-77
2023/02/28 09:06:38;;;;;;;3.27;2.30;;;;;;;;;;5058809;28;20267;-78
2023/02/28 09:09:06;;;;;;;3.50;2.10;;;;;;;;;;5070055;28;20266;-77
2023/02/28 09:11:32;;;;;;;2.63;1.73;;;;;;;;;;5050842;28;20329;-77
2023/02/28 09:14:00;;;;;;;3.77;2.10;;;;;;;;;;5059571;28;20287;-75
2023/02/28 09:16:26;;;;;;;6.83;2.37;;;;;;;;;;5059873;28;20279;-77
2023/02/28 09:18:52;;;;;;;4.03;1.30;;;;;;;;;;5051411;28;20869;-77
2023/02/28 09:21:20;;;;;;;3.43;1.77;;;;;;;;;;5059373;28;20366;-79
2023/02/28 09:23:47;;;;;;;3.93;1.50;;;;;;;;;;5058310;28;20273;-76
2023/02/28 09:26:22;;;;;;;3.50;1.90;;;;;;;;;;5056454;28;20262;-76
2023/02/28 09:28:48;;;;;;;5.10;2.77;;;;;;;;;;5055290;28;20367;-77
2023/02/28 09:31:15;;;;;;;5.80;2.63;;;;;;;;;;5052133;28;20269;-76
2023/02/28 09:33:41;;;;;;;2.13;1.90;;;;;;;;;;5050885;28;20251;-76
2023/02/28 09:36:07;;;;;;;3.70;2.53;;;;;;;;;;5050258;28;20325;-77
2023/02/28 09:38:35;;;;;;;6.37;3.80;;;;;;;;;;5075285;28;20587;-76
2023/02/28 09:41:21;;;;;;;5.30;2.93;;;;;;;;;;5055023;28;20294;-77
2023/02/28 09:43:52;;;;;;;5.97;1.97;;;;;;;;;;5057667;28;20263;-76
2023/02/28 09:46:21;;;;;;;4.83;1.50;;;;;;;;;;5054668;28;20629;-76
2023/02/28 09:48:48;;;;;;;4.37;1.70;;;;;;;;;;5056485;28;20255;-77
2023/02/28 09:51:26;;;;;;;1.93;1.37;;;;;;;;;;5062198;28;20278;-76
2023/02/28 09:53:52;;;;;;;5.20;2.73;;;;;;;;;;5056668;28;20279;-76
2023/02/28 09:56:32;;;;;;;5.97;2.77;;;;;;;;;;5057425;28;20263;-76
2023/02/28 09:59:10;;;;;;;2.83;1.53;;;;;;;;;;5043262;28;20057;-76
2023/02/28 10:01:59;;;;;;;5.30;1.53;;;;;;;;;;5057377;28;20277;-76
2023/02/28 10:04:28;;;;;;;4.17;2.37;;;;;;;;;;5074664;28;20297;-76
2023/02/28 10:06:54;;;;;;;3.00;2.03;;;;;;;;;;5056653;28;20285;-76
2023/02/28 10:09:23;;;;;;;3.30;1.50;;;;;;;;;;5047172;28;20279;-76
2023/02/28 10:11:50;;;;;;;3.67;1.50;;;;;;;;;;5055192;28;20039;-76
2023/02/28 10:14:22;;;;;;;2.60;1.10;;;;;;;;;;5063163;28;20299;-77
2023/02/28 10:16:51;;;;;;;2.03;1.37;;;;;;;;;;5049641;28;20271;-77
2023/02/28 10:19:32;;;;;;;3.87;1.77;;;;;;;;;;5057934;28;20271;-75
2023/02/28 10:22:00;;;;;;;2.73;1.37;;;;;;;;;;5054763;28;21018;-76
2023/02/28 10:24:38;;;;;;;6.63;5.13;;;;;;;;;;5049103;28;20305;-76
2023/02/28 10:27:18;;;;;;;3.47;1.70;;;;;;;;;;5058386;28;20286;-75
2023/02/28 10:29:46;;;;;;;10.83;8.37;;;;;;;;;;5055623;28;20270;-75
2023/02/28 10:32:15;;;;;;;6.27;5.67;;;;;;;;;;5054845;28;20381;-75
2023/02/28 10:34:41;;;;;;;8.83;5.13;;;;;;;;;;5055174;28;20294;-76
2023/02/28 10:37:07;;;;;;;3.37;2.73;;;;;;;;;;5039364;28;20272;-76
2023/02/28 10:39:37;;;;;;;3.93;1.60;;;;;;;;;;5055274;28;20030;-75
2023/02/28 10:42:03;;;;;;;1.87;1.10;;;;;;;;;;5059043;28;20033;-75
2023/02/28 10:44:29;;;;;;;2.60;1.60;;;;;;;;;;5055833;28;20286;-76
2023/02/28 10:46:56;;;;;;;2.63;1.40;;;;;;;;;;5060894;28;20366;-75
2023/02/28 10:49:31;;;;;;;5.53;2.30;;;;;;;;;;5055360;28;20024;-77
2023/02/28 10:51:59;;;;;;;5.70;2.67;;;;;;;;;;5059481;28;20033;-76
2023/02/28 10:54:25;;;;;;;3.63;1.80;;;;;;;;;;5045941;28;20349;-77
2023/02/28 10:57:06;;;;;;;3.40;1.43;;;;;;;;;;5057939;28;20050;-75
2023/02/28 10:59:35;;;;;;;3.90;1.87;;;;;;;;;;5041924;28;20047;-76
2023/02/28 11:02:01;;;;;;;2.73;1.40;;;;;;;;;;5049944;28;20279;-75
2023/02/28 11:04:32;;;;;;;6.27;1.47;;;;;;;;;;5043308;28;20757;-75
2023/02/28 11:07:16;;;;;;;3.40;1.67;;;;;;;;;;5053815;28;20047;-76
2023/02/28 11:09:47;;;;;;;3.37;1.63;;;;;;;;;;5055459;28;20492;-74
2023/02/28 11:12:28;;;;;;;4.67;1.90;;;;;;;;;;5038225;28;20298;-75
2023/02/28 11:14:56;;;;;;;1.40;1.10;;;;;;;;;;5055540;28;20033;-76
2023/02/28 11:17:32;;;;;;;2.17;1.33;;;;;;;;;;5041725;28;20449;-74
2023/02/28 11:20:07;;;;;;;2.83;1.50;;;;;;;;;;5053645;28;20036;-75
2023/02/28 11:22:38;;;;;;;3.30;1.50;;;;;;;;;;5054636;28;20112;-76
2023/02/28 11:25:20;;;;;;;7.37;1.50;;;;;;;;;;5050673;28;20124;-75
2023/02/28 11:27:50;;;;;;;2.43;1.70;;;;;;;;;;5045498;28;20051;-75
2023/02/28 11:30:34;;;;;;;2.67;1.40;;;;;;;;;;5035325;28;21814;-75
2023/02/28 11:33:01;;;;;;;3.27;1.83;;;;;;;;;;5040536;28;20120;-75
2023/02/28 11:35:30;;;;;;;2.37;1.50;;;;;;;;;;5054173;28;20036;-76
2023/02/28 11:37:58;;;;;;;3.97;1.60;;;;;;;;;;5051981;28;20047;-77
2023/02/28 11:40:47;;;;;;;3.47;1.63;;;;;;;;;;5053713;28;20029;-74
2023/02/28 11:43:25;;;;;;;4.07;1.80;;;;;;;;;;5029178;28;20040;-75
2023/02/28 11:46:04;;;;;;;2.30;1.47;;;;;;;;;;5045220;28;20039;-75
2023/02/28 11:48:51;;;;;;;5.03;3.17;;;;;;;;;;5052856;28;20286;-75
2023/02/28 11:51:35;;;;;;;2.97;1.50;;;;;;;;;;5053187;28;20056;-76
2023/02/28 11:54:04;;;;;;;3.00;1.70;;;;;;;;;;5045559;28;20573;-76
2023/02/28 11:56:32;;;;;;;5.37;2.40;;;;;;;;;;5052596;28;20344;-74
2023/02/28 11:59:17;;;;;;;3.87;2.00;;;;;;;;;;5054044;28;20149;-76
2023/02/28 12:01:46;;;;;;;3.77;2.00;;;;;;;;;;5053555;28;20032;-77
2023/02/28 12:04:18;;;;;;;2.83;1.67;;;;;;;;;;5035157;28;20044;-76
2023/02/28 12:06:48;;;;;;;3.22;1.92;;;;;;;;;;5041309;28;20032;-76
2023/02/28 12:09:32;;;;;;;3.13;2.13;;;;;;;;;;5038941;28;20043;-77
2023/02/28 12:12:14;;;;;;;2.70;1.60;;;;;;;;;;5053066;28;20033;-76
2023/02/28 12:14:39;;;;;;;2.53;1.40;;;;;;;;;;5054812;28;20046;-74
2023/02/28 12:17:22;;;;;;;3.07;1.73;;;;;;;;;;5054305;28;20016;-76
2023/02/28 12:19:49;;;;;;;;;;;;;;;;;;5054933;28;20083;-75
2023/02/28 12:22:36;;;;;;;3.23;1.77;;;;;;;;;;5036675;28;19913;-77
2023/02/28 12:25:13;;;;;;;2.53;1.90;;;;;;;;;;5038614;28;20033;-75
2023/02/28 12:27:42;;;;;;;3.77;1.70;;;;;;;;;;5035390;28;20044;-75
2023/02/28 12:30:26;;;;;;;3.77;1.80;;;;;;;;;;5048753;28;20036;-75
2023/02/28 12:32:56;;;;;;;3.00;2.07;;;;;;;;;;5040695;28;20051;-75
2023/02/28 12:35:25;;;;;;;4.13;2.00;;;;;;;;;;5039361;28;20045;-75
2023/02/28 12:37:56;;;;;;;3.20;1.77;;;;;;;;;;5057275;28;20058;-76
2023/02/28 12:40:24;;;;;;;3.50;1.80;;;;;;;;;;5048103;28;20056;-76
2023/02/28 12:42:52;;;;;;;5.93;3.37;;;;;;;;;;5039303;28;20040;-75
2023/02/28 12:45:32;;;;;;;4.83;2.23;;;;;;;;;;5048131;28;20411;-75
2023/02/28 12:48:00;;;;;;;2.83;2.20;;;;;;;;;;5040466;28;20054;-75
2023/02/28 12:50:28;;;;;;;5.70;2.20;;;;;;;;;;5050964;28;20028;-75
2023/02/28 12:52:57;;;;;;;6.33;3.57;;;;;;;;;;5056016;28;20032;-74
2023/02/28 12:55:41;;;;;;;8.67;6.63;;;;;;;;;;5043079;28;20041;-75
2023/02/28 12:58:16;;;;;;;4.93;2.23;;;;;;;;;;5058167;28;20645;-75
2023/02/28 13:01:09;;;;;;;3.23;1.97;;;;;;;;;;5056136;28;20075;-77
2023/02/28 13:03:50;;;;;;;11.20;8.05;;;;;;;;;;5020681;28;20072;-75
2023/02/28 13:06:22;;;;;;;4.20;3.60;;;;;;;;;;5056730;28;20028;-76
2023/02/28 13:09:01;;;;;;;5.13;3.63;;;;;;;;;;5060937;28;20086;-75
2023/02/28 13:11:46;;;;;;;4.00;2.20;;;;;;;;;;5039118;28;20123;-75
2023/02/28 13:14:35;;;;;;;5.47;3.20;;;;;;;;;;5057161;28;20043;-76
2023/02/28 13:17:04;;;;;;;2.90;2.37;;;;;;;;;;5043047;28;20036;-77
2023/02/28 13:19:31;;;;;;;5.10;2.80;;;;;;;;;;5047125;28;20028;-75
2023/02/28 13:22:00;;;;;;;5.07;2.37;;;;;;;;;;5056939;28;20021;-74
2023/02/28 13:24:41;;;;;;;4.27;2.77;;;;;;;;;;5056054;28;21335;-75
2023/02/28 13:27:07;;;;;;;3.83;2.50;;;;;;;;;;5041317;28;20033;-76
2023/02/28 13:29:44;;;;;;;3.30;2.50;;;;;;;;;;5041171;28;20032;-74
2023/02/28 13:32:10;;;;;;;3.10;2.30;;;;;;;;;;5042168;28;20047;-75
2023/02/28 13:34:39;;;;;;;4.90;2.60;;;;;;;;;;5056232;28;20425;-75
2023/02/28 13:37:18;;;;;;;5.87;2.27;;;;;;;;;;5055304;28;20437;-77
2023/02/28 13:39:43;;;;;;;6.90;2.60;;;;;;;;;;5055228;28;20063;-76
2023/02/28 13:42:22;;;;;;;5.23;2.97;;;;;;;;;;5037685;28;20465;-75
2023/02/28 13:45:06;;;;;;;6.70;3.07;;;;;;;;;;5042451;28;20761;-76
2023/02/28 13:47:32;;;;;;;5.87;3.00;;;;;;;;;;5055062;28;20491;-76
2023/02/28 13:50:17;;;;;;;4.00;2.47;;;;;;;;;;5038310;28;20037;-77
2023/02/28 13:52:49;;;;;;;3.80;2.57;;;;;;;;;;5056996;28;20299;-76
2023/02/28 13:55:18;;;;;;;4.55;2.58;;;;;;;;;;5055686;28;20163;-77
2023/02/28 13:57:44;;;;;;;4.43;2.40;;;;;;;;;;5056991;28;20025;-75
2023/02/28 14:00:28;;;;;;;4.47;2.73;;;;;;;;;;5038565;28;20029;-75
2023/02/28 14:02:54;;;;;;;5.13;2.77;;;;;;;;;;5047771;28;20024;-76
2023/02/28 14:05:25;;;;;;;3.57;2.10;;;;;;;;;;5056339;28;20027;-75
2023/02/28 14:07:53;;;;;;;4.47;2.10;;;;;;;;;;5056468;28;20089;-76
2023/02/28 14:10:28;;;;;;;6.13;2.50;;;;;;;;;;5042516;28;20025;-77
2023/02/28 14:12:55;;;;;;;3.50;2.00;;;;;;;;;;5046815;28;20606;-75
2023/02/28 14:15:28;;;;;;;3.43;2.10;;;;;;;;;;5039561;28;20451;-76
2023/02/28 14:17:59;;;;;;;3.50;2.08;;;;;;;;;;5037583;28;20021;-77
2023/02/28 14:20:29;;;;;;;3.63;2.00;;;;;;;;;;5055342;28;20032;-75
2023/02/28 14:23:03;;;;;;;3.77;1.90;;;;;;;;;;5055389;28;20028;-76
2023/02/28 14:25:36;;;;;;;4.67;2.50;;;;;;;;;;5038736;28;20039;-76
2023/02/28 14:28:12;;;;;;;4.20;2.10;;;;;;;;;;5054822;28;20078;-76
2023/02/28 14:30:38;;;;;;;3.73;2.40;;;;;;;;;;5046770;28;20074;-75
2023/02/28 14:33:11;;;;;;;3.23;2.10;;;;;;;;;;5039056;28;20037;-75
2023/02/28 14:35:43;;;;;;;5.50;2.83;;;;;;;;;;5055644;28;20063;-75
2023/02/28 14:38:14;;;;;;;3.88;2.05;;;;;;;;;;5055698;28;20048;-76
2023/02/28 14:40:41;;;;;;;3.83;2.20;;;;;;;;;;5036215;28;20461;-74
2023/02/28 14:43:19;;;;;;;3.43;1.83;;;;;;;;;;5056524;28;20114;-75
2023/02/28 14:45:49;;;;;;;5.30;3.53;;;;;;;;;;5053435;28;20122;-77
2023/02/28 14:48:16;;;;;;;3.50;2.13;;;;;;;;;;5056689;28;20035;-76
2023/02/28 14:50:48;;;;;;;3.63;2.20;;;;;;;;;;5074759;28;20036;-76
2023/02/28 14:53:18;;;;;;;3.80;2.43;;;;;;;;;;5045893;28;20033;-74
2023/02/28 14:55:45;;;;;;;6.17;2.40;;;;;;;;;;5056684;28;20032;-74
2023/02/28 14:58:40;;;;;;;4.63;2.70;;;;;;;;;;5059573;28;20070;-76